Time;durP1;ratioP1;P1;durP2;ratioP2;P2;SDS_P1;SDS_P2;PMS_P1;PMS_P2;Temp;Humidity;BMP_temperature;BMP_pressure;BME280_temperature;BME280_humidity;BME280_pressure;Samples;Min_cycle;Max_cycle;Signal;HPM_P1;HPM_P2
2022/01/27 00:05:20;;;;;;;50.38;22.85;;;6.00;99.90;;;;;;5034490;28;20064;-75
2022/01/27 00:08:10;;;;;;;52.25;21.83;;;6.00;99.90;;;;;;5033809;28;20533;-74
2022/01/27 00:13:09;;;;;;;38.65;19.50;;;6.00;99.90;;;;;;5034351;28;20053;-75
2022/01/27 00:15:35;;;;;;;38.08;19.30;;;6.00;99.90;;;;;;5034215;28;20152;-73
2022/01/27 00:18:07;;;;;;;39.47;21.30;;;6.00;99.90;;;;;;5034361;28;20084;-75
2022/01/27 00:20:33;;;;;;;46.78;20.60;;;6.00;99.90;;;;;;5037805;28;20076;-75
2022/01/27 00:22:59;;;;;;;38.15;18.77;;;6.00;99.90;;;;;;5038248;28;20064;-73
2022/01/27 00:25:24;;;;;;;41.88;19.50;;;6.00;99.90;;;;;;5038128;28;20040;-73
2022/01/27 00:27:50;;;;;;;27.58;15.15;;;6.00;99.90;;;;;;5036933;28;20049;-75
2022/01/27 00:30:16;;;;;;;43.60;18.73;;;6.00;99.90;;;;;;5037611;28;20045;-76
2022/01/27 00:32:41;;;;;;;48.25;20.48;;;6.00;99.90;;;;;;5037671;28;20471;-74
2022/01/27 00:35:07;;;;;;;33.60;17.73;;;6.00;99.90;;;;;;5037939;28;20447;-73
2022/01/27 00:37:33;;;;;;;43.05;17.20;;;6.00;99.90;;;;;;5037428;28;20041;-75
2022/01/27 00:39:59;;;;;;;43.60;19.65;;;6.00;99.90;;;;;;5037529;28;20053;-75
2022/01/27 00:42:26;;;;;;;40.85;19.83;;;6.00;99.90;;;;;;5037904;28;20124;-74
2022/01/27 00:44:52;;;;;;;40.30;19.88;;;5.90;99.90;;;;;;5037470;28;20136;-75
2022/01/27 00:47:18;;;;;;;37.65;19.90;;;6.00;99.90;;;;;;5037328;28;20042;-76
2022/01/27 00:49:43;;;;;;;41.00;21.25;;;5.90;99.90;;;;;;5037197;28;20064;-75
2022/01/27 00:52:15;;;;;;;38.33;18.30;;;5.90;99.90;;;;;;5037327;28;20085;-75
2022/01/27 00:54:41;;;;;;;43.28;21.80;;;5.90;99.90;;;;;;5037732;28;20045;-74
2022/01/27 00:57:15;;;;;;;45.83;18.35;;;5.90;99.90;;;;;;5037344;28;20091;-74
2022/01/27 00:59:54;;;;;;;35.33;19.65;;;5.90;99.90;;;;;;5036710;28;20124;-76
2022/01/27 01:02:39;;;;;;;40.35;19.83;;;5.90;99.90;;;;;;5036739;28;20065;-75
2022/01/27 01:07:38;;;;;;;41.40;19.88;;;5.90;99.90;;;;;;5037331;28;20053;-75
2022/01/27 01:15:36;;;;;;;42.70;21.73;;;5.90;99.90;;;;;;5037025;28;20053;-74
2022/01/27 01:33:56;;;;;;;35.97;20.42;;;5.80;99.90;;;;;;5036764;28;20053;-75
2022/01/27 01:36:35;;;;;;;47.42;23.85;;;5.80;99.90;;;;;;5036334;28;20443;-75
2022/01/27 01:39:06;;;;;;;40.17;22.95;;;5.80;99.90;;;;;;5036589;28;20053;-74
2022/01/27 01:41:33;;;;;;;49.30;23.88;;;5.70;99.90;;;;;;5016127;28;20448;-73
2022/01/27 01:44:00;;;;;;;41.38;21.33;;;5.80;99.90;;;;;;5016669;28;20034;-75
2022/01/27 01:46:26;;;;;;;41.17;19.80;;;5.70;99.90;;;;;;5016636;28;20464;-74
2022/01/27 01:48:51;;;;;;;45.58;20.98;;;5.80;99.90;;;;;;5016805;28;20054;-74
2022/01/27 01:51:29;;;;;;;46.60;22.67;;;5.80;99.90;;;;;;5035203;28;20041;-74
2022/01/27 01:53:55;;;;;;;50.95;25.17;;;5.70;99.90;;;;;;5035578;28;20085;-74
2022/01/27 01:56:22;;;;;;;40.13;21.90;;;5.70;99.90;;;;;;5036126;28;20084;-73
2022/01/27 01:58:48;;;;;;;47.65;23.48;;;5.70;99.90;;;;;;5036265;28;20116;-74
2022/01/27 02:01:14;;;;;;;38.17;20.67;;;5.70;99.90;;;;;;5036165;28;20038;-73
2022/01/27 02:03:40;;;;;;;43.25;22.73;;;5.70;99.90;;;;;;5036291;28;20124;-74
2022/01/27 02:06:06;;;;;;;45.83;23.30;;;5.70;99.90;;;;;;5035165;28;20120;-74
2022/01/27 02:08:43;;;;;;;46.97;23.33;;;5.80;99.90;;;;;;5035592;28;20045;-74
2022/01/27 02:19:28;;;;;;;47.67;22.65;;;5.90;99.90;;;;;;5035515;28;20315;-74
2022/01/27 02:21:57;;;;;;;50.10;21.75;;;6.00;99.90;;;;;;5035918;28;20072;-73
2022/01/27 02:24:27;;;;;;;43.92;19.95;;;6.00;99.90;;;;;;5035749;28;20079;-74
2022/01/27 02:26:52;;;;;;;39.65;21.25;;;6.00;99.90;;;;;;5035327;28;20050;-76
2022/01/27 02:29:20;;;;;;;36.70;17.73;;;6.00;99.90;;;;;;5035481;28;20414;-74
2022/01/27 02:31:46;;;;;;;43.28;22.27;;;6.10;99.90;;;;;;5035599;28;20146;-74
2022/01/27 02:34:12;;;;;;;36.20;18.23;;;6.10;99.90;;;;;;5035705;28;20053;-74
2022/01/27 02:36:38;;;;;;;40.58;22.13;;;6.20;99.90;;;;;;5035449;28;20120;-73
2022/01/27 02:39:05;;;;;;;49.15;21.65;;;6.10;99.90;;;;;;5035276;28;20132;-74
2022/01/27 02:41:56;;;;;;;45.60;23.15;;;6.20;99.90;;;;;;5034677;28;20371;-77
2022/01/27 02:44:32;;;;;;;43.22;23.15;;;6.20;99.90;;;;;;5034861;28;20054;-73
2022/01/27 02:46:58;;;;;;;44.55;24.00;;;6.20;99.90;;;;;;5035550;28;20356;-74
2022/01/27 02:49:24;;;;;;;48.08;22.67;;;6.20;99.90;;;;;;5034778;28;20052;-75
2022/01/27 02:51:50;;;;;;;42.40;19.55;;;6.20;99.90;;;;;;5034929;28;20352;-74
2022/01/27 02:54:16;;;;;;;39.85;19.55;;;6.30;99.90;;;;;;5035050;28;20046;-75
2022/01/27 02:56:46;;;;;;;46.28;20.23;;;6.30;99.90;;;;;;5034631;28;20115;-74
2022/01/27 02:59:14;;;;;;;46.03;21.90;;;6.30;99.90;;;;;;5034851;28;20067;-73
2022/01/27 03:01:40;;;;;;;45.35;20.83;;;6.30;99.90;;;;;;5034291;28;20053;-76
2022/01/27 03:04:05;;;;;;;47.35;19.30;;;6.40;99.90;;;;;;5034547;28;20372;-77
2022/01/27 03:06:31;;;;;;;36.38;19.08;;;6.30;99.90;;;;;;5035318;28;20053;-76
2022/01/27 03:08:57;;;;;;;42.78;21.27;;;6.40;99.90;;;;;;5034956;28;20416;-75
2022/01/27 03:11:56;;;;;;;39.53;19.15;;;6.40;99.90;;;;;;5034871;28;20076;-75
2022/01/27 03:14:24;;;;;;;41.72;19.58;;;6.40;99.90;;;;;;5034387;28;20452;-74
2022/01/27 03:16:54;;;;;;;51.15;20.52;;;6.40;99.90;;;;;;5034559;28;20041;-73
2022/01/27 03:19:20;;;;;;;32.67;15.43;;;6.40;99.90;;;;;;5034994;28;20069;-75
2022/01/27 03:21:45;;;;;;;42.20;18.33;;;6.40;99.90;;;;;;5035000;28;20457;-73
2022/01/27 03:24:11;;;;;;;42.63;16.95;;;6.50;99.90;;;;;;5034679;28;20156;-74
2022/01/27 03:26:37;;;;;;;31.88;16.52;;;6.50;99.90;;;;;;5034469;28;20045;-74
2022/01/27 03:29:03;;;;;;;40.75;19.00;;;6.50;99.90;;;;;;5034775;28;20068;-73
2022/01/27 03:31:29;;;;;;;36.85;16.63;;;6.50;99.90;;;;;;5034653;28;20049;-76
2022/01/27 03:33:55;;;;;;;49.92;18.40;;;6.50;99.90;;;;;;5034956;28;20060;-74
2022/01/27 03:36:21;;;;;;;49.22;16.85;;;6.50;99.90;;;;;;5034478;28;20045;-76
2022/01/27 03:38:47;;;;;;;40.38;16.17;;;6.50;99.90;;;;;;5034684;28;20466;-73
2022/01/27 03:41:18;;;;;;;35.80;18.00;;;6.60;99.90;;;;;;5034798;28;20049;-75
2022/01/27 03:43:43;;;;;;;40.80;18.73;;;6.60;99.90;;;;;;5034584;28;20056;-74
2022/01/27 03:46:09;;;;;;;34.28;15.38;;;6.60;99.90;;;;;;5033634;28;20140;-75
2022/01/27 03:48:35;;;;;;;40.83;16.08;;;6.60;99.90;;;;;;5034926;28;20087;-74
2022/01/27 03:51:00;;;;;;;38.20;16.88;;;6.60;99.90;;;;;;5034723;28;20095;-74
2022/01/27 03:53:26;;;;;;;38.55;17.13;;;6.60;99.90;;;;;;5035089;28;20080;-76
2022/01/27 03:55:51;;;;;;;36.50;16.67;;;6.60;99.90;;;;;;5037908;28;20053;-72
2022/01/27 03:58:17;;;;;;;37.47;15.93;;;6.70;99.90;;;;;;5038788;28;20049;-75
2022/01/27 04:00:42;;;;;;;43.35;17.00;;;6.70;99.90;;;;;;5038559;28;20045;-75
2022/01/27 04:03:11;;;;;;;34.38;14.95;;;6.70;99.90;;;;;;5038350;28;20045;-74
2022/01/27 04:05:44;;;;;;;48.15;18.05;;;6.70;99.90;;;;;;5037939;28;20356;-75
2022/01/27 04:08:13;;;;;;;35.03;16.02;;;6.70;99.90;;;;;;5038007;28;20056;-73
2022/01/27 04:10:39;;;;;;;40.53;15.82;;;6.70;99.90;;;;;;5038514;28;20135;-73
2022/01/27 04:13:06;;;;;;;41.85;16.88;;;6.80;99.90;;;;;;5037085;28;20045;-74
2022/01/27 04:15:36;;;;;;;39.95;14.88;;;6.70;99.90;;;;;;5037666;28;20120;-74
2022/01/27 04:18:03;;;;;;;39.88;17.02;;;6.70;99.90;;;;;;5037106;28;20064;-76
2022/01/27 04:20:28;;;;;;;43.17;17.67;;;6.70;99.90;;;;;;5038003;28;20045;-75
2022/01/27 04:22:54;;;;;;;42.50;16.98;;;6.70;99.90;;;;;;5038136;28;20050;-74
2022/01/27 04:25:20;;;;;;;44.10;17.77;;;6.70;99.90;;;;;;5037737;28;20095;-76
2022/01/27 04:27:50;;;;;;;45.08;16.65;;;6.60;99.90;;;;;;5037901;28;20056;-74
2022/01/27 04:30:18;;;;;;;37.58;14.57;;;6.60;99.90;;;;;;5038148;28;20049;-74
2022/01/27 04:32:53;;;;;;;42.78;17.23;;;6.70;99.90;;;;;;5037705;28;20095;-73
2022/01/27 04:35:21;;;;;;;37.05;16.42;;;6.70;99.90;;;;;;5037637;28;20034;-74
2022/01/27 04:38:17;;;;;;;40.40;16.95;;;6.70;99.90;;;;;;5037885;28;20089;-74
2022/01/27 04:41:16;;;;;;;38.72;15.00;;;6.70;99.90;;;;;;5037526;28;20053;-75
2022/01/27 04:43:53;;;;;;;41.35;16.20;;;6.70;99.90;;;;;;5037270;28;20041;-74
2022/01/27 04:48:58;;;;;;;48.80;18.17;;;6.70;99.90;;;;;;5037587;28;20049;-74
2022/01/27 04:51:24;;;;;;;43.35;17.73;;;6.60;99.90;;;;;;5037570;28;20073;-73
2022/01/27 04:56:17;;;;;;;65.30;20.88;;;6.50;99.90;;;;;;5037170;28;20050;-76
2022/01/27 04:58:46;;;;;;;46.45;20.23;;;6.50;99.90;;;;;;5037306;28;20041;-73
2022/01/27 05:01:12;;;;;;;45.97;18.63;;;6.40;99.90;;;;;;5037312;28;20463;-74
2022/01/27 05:06:10;;;;;;;56.58;18.95;;;6.40;99.90;;;;;;5035503;28;20049;-73
2022/01/27 05:08:36;;;;;;;46.17;19.25;;;6.40;99.90;;;;;;5036762;28;20053;-74
2022/01/27 05:11:12;;;;;;;45.78;18.65;;;6.40;99.90;;;;;;5036912;28;20057;-76
2022/01/27 05:13:42;;;;;;;47.95;18.23;;;6.40;99.90;;;;;;5037076;28;20077;-73
2022/01/27 05:16:08;;;;;;;44.90;19.38;;;6.50;99.90;;;;;;5036094;28;20063;-75
2022/01/27 05:18:34;;;;;;;44.13;16.92;;;6.40;99.90;;;;;;5036892;28;20045;-74
2022/01/27 05:21:00;;;;;;;46.33;19.48;;;6.40;99.90;;;;;;5035159;28;20053;-75
2022/01/27 05:23:26;;;;;;;46.90;18.42;;;6.50;99.90;;;;;;5036760;28;20143;-74
2022/01/27 05:25:51;;;;;;;54.78;19.92;;;6.50;99.90;;;;;;5036233;28;20095;-75
2022/01/27 05:28:17;;;;;;;52.17;21.55;;;6.50;99.90;;;;;;5035781;28;20088;-74
2022/01/27 05:30:42;;;;;;;53.70;20.35;;;6.50;99.90;;;;;;5036540;28;20394;-75
2022/01/27 05:33:09;;;;;;;61.60;22.77;;;6.50;99.90;;;;;;5036436;28;20095;-73
2022/01/27 05:35:36;;;;;;;47.60;18.90;;;6.50;99.90;;;;;;5035686;28;20053;-74
2022/01/27 05:38:01;;;;;;;60.38;21.35;;;6.50;99.90;;;;;;5036151;28;20112;-75
2022/01/27 05:40:27;;;;;;;67.78;23.13;;;6.50;99.90;;;;;;5036378;28;20432;-74
2022/01/27 05:42:53;;;;;;;61.88;23.42;;;6.50;99.90;;;;;;5036548;28;20455;-75
2022/01/27 05:45:19;;;;;;;61.38;23.05;;;6.40;99.90;;;;;;5036221;28;20040;-73
2022/01/27 05:47:45;;;;;;;56.70;21.40;;;6.40;99.90;;;;;;5036225;28;20447;-73
2022/01/27 05:50:11;;;;;;;61.75;22.67;;;6.40;99.90;;;;;;5036069;28;20057;-75
2022/01/27 05:52:37;;;;;;;63.00;22.17;;;6.30;99.90;;;;;;5036397;28;20107;-75
2022/01/27 05:55:03;;;;;;;69.57;24.88;;;6.40;99.90;;;;;;5036217;28;20418;-74
2022/01/27 05:57:29;;;;;;;62.58;23.20;;;6.30;99.90;;;;;;5036411;28;20450;-72
2022/01/27 05:59:54;;;;;;;69.35;25.33;;;6.40;99.90;;;;;;5035962;28;20041;-77
2022/01/27 06:02:20;;;;;;;63.42;25.02;;;6.30;99.90;;;;;;5035804;28;20372;-74
2022/01/27 06:04:45;;;;;;;69.60;23.83;;;6.30;99.90;;;;;;5035058;28;20046;-75
2022/01/27 06:07:11;;;;;;;72.35;23.65;;;6.30;99.90;;;;;;5036183;28;20053;-73
2022/01/27 06:09:36;;;;;;;70.05;24.00;;;6.40;99.90;;;;;;5035656;28;20057;-76
2022/01/27 06:12:02;;;;;;;76.22;25.48;;;6.40;99.90;;;;;;5035703;28;20045;-74
2022/01/27 06:14:27;;;;;;;69.95;23.88;;;6.40;99.90;;;;;;5035694;28;20045;-75
2022/01/27 06:16:53;;;;;;;60.83;23.27;;;6.40;99.90;;;;;;5035798;28;20187;-74
2022/01/27 06:19:19;;;;;;;67.10;24.60;;;6.50;99.90;;;;;;5035807;28;20130;-73
2022/01/27 06:21:45;;;;;;;62.63;23.33;;;6.40;99.90;;;;;;5034773;28;20053;-76
2022/01/27 06:24:10;;;;;;;66.03;23.63;;;6.40;99.90;;;;;;5035854;28;20041;-73
2022/01/27 06:27:31;;;;;;;71.43;22.75;;;6.40;99.90;;;;;;5035703;28;20053;-79
2022/01/27 06:30:20;;;;;;;68.60;20.45;;;6.40;99.90;;;;;;5034180;28;20053;-80
2022/01/27 06:32:51;;;;;;;77.80;25.63;;;6.40;99.90;;;;;;5035007;28;20041;-81
2022/01/27 06:35:16;;;;;;;82.85;23.77;;;6.40;99.90;;;;;;5018304;28;20045;-79
2022/01/27 06:37:44;;;;;;;75.38;23.48;;;6.40;99.90;;;;;;5018090;28;20052;-81
2022/01/27 06:40:10;;;;;;;70.30;25.13;;;6.40;99.90;;;;;;5017960;28;20037;-76
2022/01/27 06:42:36;;;;;;;69.13;23.35;;;6.40;99.90;;;;;;5034187;28;20041;-77
2022/01/27 06:45:06;;;;;;;63.85;22.02;;;6.40;99.90;;;;;;5034130;28;20098;-73
2022/01/27 06:47:31;;;;;;;76.07;22.40;;;6.50;99.90;;;;;;5035221;28;20179;-77
2022/01/27 06:49:57;;;;;;;62.47;23.35;;;6.50;99.90;;;;;;5034550;28;20117;-74
2022/01/27 06:52:25;;;;;;;69.90;22.98;;;6.50;99.90;;;;;;5035243;28;20048;-74
2022/01/27 06:54:52;;;;;;;73.07;24.20;;;6.50;99.90;;;;;;5034962;28;20049;-75
2022/01/27 06:57:18;;;;;;;68.35;22.33;;;6.60;99.90;;;;;;5034950;28;20053;-75
2022/01/27 06:59:43;;;;;;;60.47;21.85;;;6.50;99.90;;;;;;5035130;28;20091;-75
2022/01/27 07:02:09;;;;;;;66.28;21.38;;;6.50;99.90;;;;;;5035110;28;20038;-73
2022/01/27 07:04:35;;;;;;;65.53;21.30;;;6.60;99.90;;;;;;5034177;28;20041;-74
2022/01/27 07:07:00;;;;;;;60.65;22.48;;;6.60;99.90;;;;;;5034901;28;20372;-73
2022/01/27 07:09:26;;;;;;;66.82;21.05;;;6.60;99.90;;;;;;5034736;28;20066;-74
2022/01/27 07:11:52;;;;;;;62.10;19.83;;;6.60;99.90;;;;;;5034684;28;20068;-76
2022/01/27 07:14:18;;;;;;;63.70;19.60;;;6.70;99.90;;;;;;5034698;28;20116;-75
2022/01/27 07:16:43;;;;;;;47.45;17.10;;;6.70;99.90;;;;;;5034903;28;20045;-74
2022/01/27 07:19:10;;;;;;;52.58;15.82;;;6.80;99.90;;;;;;5034837;28;20123;-76
2022/01/27 07:21:36;;;;;;;45.53;17.65;;;6.90;99.90;;;;;;5034694;28;20049;-74
2022/01/27 07:24:02;;;;;;;48.83;16.25;;;6.90;99.90;;;;;;5034793;28;20107;-74
2022/01/27 07:26:27;;;;;;;52.28;16.00;;;7.10;99.90;;;;;;5034232;28;20053;-74
2022/01/27 07:28:54;;;;;;;35.40;14.35;;;7.10;99.90;;;;;;5033871;28;20064;-74
2022/01/27 07:31:20;;;;;;;42.65;13.40;;;7.10;99.90;;;;;;5034699;28;20045;-74
2022/01/27 07:33:48;;;;;;;38.67;14.30;;;7.20;99.90;;;;;;5034422;28;20052;-75
2022/01/27 07:36:15;;;;;;;40.13;13.98;;;7.20;99.90;;;;;;5034222;28;20508;-74
2022/01/27 07:38:41;;;;;;;51.40;14.82;;;7.20;99.90;;;;;;5034770;28;20364;-74
2022/01/27 07:41:07;;;;;;;38.58;12.95;;;7.20;99.90;;;;;;5034797;28;20060;-74
2022/01/27 07:43:32;;;;;;;45.60;14.38;;;7.20;99.90;;;;;;5033991;28;20037;-74
2022/01/27 07:45:59;;;;;;;41.45;14.13;;;7.20;99.90;;;;;;5033985;28;20124;-75
2022/01/27 07:48:25;;;;;;;38.53;12.80;;;7.20;99.90;;;;;;5034424;28;20348;-73
2022/01/27 07:50:51;;;;;;;41.00;13.25;;;7.30;99.90;;;;;;5034721;28;20042;-75
2022/01/27 07:53:17;;;;;;;45.97;12.63;;;7.30;99.90;;;;;;5034485;28;20506;-74
2022/01/27 07:55:43;;;;;;;38.58;12.73;;;7.20;99.90;;;;;;5034508;28;20049;-73
2022/01/27 07:58:08;;;;;;;36.50;11.25;;;7.40;99.90;;;;;;5033732;28;20076;-76
2022/01/27 08:00:34;;;;;;;49.05;12.70;;;7.40;99.90;;;;;;5034349;28;20041;-74
2022/01/27 08:02:59;;;;;;;42.38;12.55;;;7.40;99.90;;;;;;5034362;28;20041;-75
2022/01/27 08:05:25;;;;;;;38.80;10.80;;;7.40;99.90;;;;;;5034219;28;20041;-74
2022/01/27 08:07:51;;;;;;;42.72;12.77;;;7.40;99.90;;;;;;5034323;28;20406;-75
2022/01/27 08:10:16;;;;;;;34.53;10.23;;;7.40;99.90;;;;;;5034093;28;20069;-73
2022/01/27 08:12:43;;;;;;;38.17;13.45;;;7.50;99.90;;;;;;5033781;28;20088;-74
2022/01/27 08:15:11;;;;;;;42.67;12.10;;;7.50;99.90;;;;;;5033257;28;20053;-75
2022/01/27 08:17:38;;;;;;;32.08;11.88;;;7.40;99.90;;;;;;5034244;28;20045;-74
2022/01/27 08:20:04;;;;;;;34.67;9.65;;;7.50;99.90;;;;;;5034552;28;20042;-73
2022/01/27 08:22:29;;;;;;;41.47;12.07;;;7.40;99.90;;;;;;5033824;28;20467;-72
2022/01/27 08:24:55;;;;;;;31.58;9.80;;;7.40;99.90;;;;;;5034406;28;20154;-74
2022/01/27 08:27:26;;;;;;;38.10;11.00;;;7.50;99.90;;;;;;5034215;28;20056;-74
2022/01/27 08:29:57;;;;;;;37.92;11.70;;;7.50;99.90;;;;;;5034172;28;20129;-74
2022/01/27 08:32:31;;;;;;;27.10;8.77;;;7.50;99.90;;;;;;5034249;28;20082;-74
2022/01/27 08:34:57;;;;;;;33.60;10.45;;;7.50;99.90;;;;;;5014620;28;20038;-73
2022/01/27 08:37:23;;;;;;;42.20;11.18;;;7.60;99.90;;;;;;5014439;28;20448;-74
2022/01/27 08:39:48;;;;;;;34.05;10.65;;;7.60;99.90;;;;;;5014520;28;20133;-73
2022/01/27 08:42:15;;;;;;;37.15;9.90;;;7.60;99.90;;;;;;5017315;28;20129;-73
2022/01/27 08:44:41;;;;;;;44.47;10.55;;;7.50;99.90;;;;;;5035491;28;20099;-74
2022/01/27 08:47:07;;;;;;;34.97;10.23;;;7.50;99.90;;;;;;5037450;28;20084;-75
2022/01/27 08:49:33;;;;;;;35.90;11.57;;;7.50;99.90;;;;;;5037757;28;20538;-74
2022/01/27 08:51:59;;;;;;;36.03;9.98;;;7.60;99.90;;;;;;5037656;28;20447;-73
2022/01/27 08:54:26;;;;;;;33.05;10.45;;;7.50;99.90;;;;;;5036426;28;20118;-74
2022/01/27 08:56:52;;;;;;;43.75;9.00;;;7.60;99.90;;;;;;5037122;28;20055;-74
2022/01/27 08:59:18;;;;;;;38.63;9.38;;;7.50;99.90;;;;;;5037150;28;20041;-75
2022/01/27 09:01:44;;;;;;;41.72;10.02;;;7.50;99.90;;;;;;5036974;28;20056;-74
2022/01/27 09:04:10;;;;;;;41.33;11.73;;;7.50;99.90;;;;;;5037353;28;20379;-76
2022/01/27 09:06:36;;;;;;;44.05;9.63;;;7.60;99.90;;;;;;5037125;28;20045;-74
2022/01/27 09:09:04;;;;;;;45.30;12.90;;;7.60;99.90;;;;;;5037278;28;20060;-75
2022/01/27 09:11:31;;;;;;;35.58;9.40;;;7.60;99.90;;;;;;5036926;28;20365;-73
2022/01/27 09:13:57;;;;;;;36.80;10.45;;;7.60;99.90;;;;;;5036457;28;20057;-74
2022/01/27 09:16:26;;;;;;;48.10;11.10;;;7.70;99.90;;;;;;5037076;28;20058;-73
2022/01/27 09:18:53;;;;;;;44.20;10.88;;;7.70;99.90;;;;;;5036969;28;20360;-75
2022/01/27 09:21:23;;;;;;;36.70;9.43;;;7.70;99.90;;;;;;5036910;28;20049;-76
2022/01/27 09:23:50;;;;;;;42.92;9.65;;;7.70;99.90;;;;;;5036145;28;20057;-75
2022/01/27 09:26:40;;;;;;;32.20;9.88;;;7.80;99.90;;;;;;5036537;28;20077;-74
2022/01/27 09:29:05;;;;;;;40.03;11.20;;;7.80;99.90;;;;;;5036341;28;20053;-76
2022/01/27 09:31:32;;;;;;;34.88;9.50;;;7.80;99.90;;;;;;5036893;28;20059;-74
2022/01/27 09:33:57;;;;;;;34.30;8.80;;;7.90;99.90;;;;;;5036447;28;20041;-75
2022/01/27 09:36:23;;;;;;;35.90;9.10;;;7.90;99.90;;;;;;5035833;28;20064;-73
2022/01/27 09:38:48;;;;;;;40.40;9.80;;;7.90;99.90;;;;;;5036426;28;20041;-74
2022/01/27 09:41:19;;;;;;;30.23;8.05;;;8.00;99.90;;;;;;5038026;28;20076;-74
2022/01/27 09:43:46;;;;;;;26.15;8.02;;;8.10;99.90;;;;;;5036616;28;20080;-73
2022/01/27 09:46:13;;;;;;;36.65;8.98;;;8.30;99.90;;;;;;5036294;28;20053;-76
2022/01/27 09:48:43;;;;;;;24.30;7.15;;;8.40;99.90;;;;;;5036140;28;20095;-76
2022/01/27 09:53:52;;;;;;;26.85;10.55;;;8.50;99.90;;;;;;5036592;28;20045;-75
2022/01/27 09:56:19;;;;;;;27.95;8.88;;;8.50;99.90;;;;;;5036034;28;20084;-74
2022/01/27 09:58:45;;;;;;;43.58;8.70;;;8.50;99.90;;;;;;5035844;28;20049;-73
2022/01/27 10:01:10;;;;;;;33.78;8.85;;;8.50;99.90;;;;;;5036334;28;20045;-76
2022/01/27 10:03:56;;;;;;;26.80;8.07;;;8.50;99.90;;;;;;5035200;28;20140;-75
2022/01/27 10:06:27;;;;;;;35.08;8.10;;;8.50;99.90;;;;;;5036037;28;20045;-76
2022/01/27 10:09:19;;;;;;;33.70;9.50;;;8.50;99.90;;;;;;5016240;28;20056;-75
2022/01/27 10:11:47;;;;;;;32.10;8.90;;;8.40;99.90;;;;;;5011220;28;20420;-74
2022/01/27 10:14:18;;;;;;;27.05;9.55;;;8.40;99.90;;;;;;5016235;28;20057;-75
2022/01/27 10:16:44;;;;;;;38.00;8.80;;;8.50;99.90;;;;;;5019266;28;20376;-75
2022/01/27 10:19:11;;;;;;;28.23;8.20;;;8.50;99.90;;;;;;5035967;28;20049;-73
2022/01/27 10:21:37;;;;;;;29.13;7.57;;;8.60;99.90;;;;;;5034767;28;20432;-74
2022/01/27 10:24:16;;;;;;;33.70;8.45;;;8.60;99.90;;;;;;5035773;28;20064;-76
2022/01/27 10:26:45;;;;;;;27.85;7.65;;;8.60;99.90;;;;;;5035085;28;20046;-75
2022/01/27 10:29:28;;;;;;;29.63;7.28;;;8.60;99.90;;;;;;5035462;28;20455;-75
2022/01/27 10:32:05;;;;;;;42.50;8.32;;;8.60;99.90;;;;;;5035670;28;20057;-75
2022/01/27 10:34:50;;;;;;;44.25;9.43;;;8.60;99.90;;;;;;5035505;28;20053;-74
2022/01/27 10:37:15;;;;;;;;;;;8.50;99.90;;;;;;5035467;28;20072;-74
2022/01/27 10:39:45;;;;;;;42.90;11.68;;;8.60;99.90;;;;;;5035526;28;20355;-74
2022/01/27 10:42:11;;;;;;;31.10;7.68;;;8.60;99.90;;;;;;5035465;28;20329;-75
2022/01/27 10:44:47;;;;;;;34.25;7.43;;;8.70;99.90;;;;;;5035342;28;20103;-77
2022/01/27 10:47:19;;;;;;;43.15;10.00;;;8.70;99.90;;;;;;5035190;28;20049;-76
2022/01/27 10:49:49;;;;;;;32.38;8.90;;;8.80;99.90;;;;;;5035118;28;20420;-75
2022/01/27 10:52:29;;;;;;;26.15;7.75;;;8.70;99.90;;;;;;5035216;28;20397;-75
2022/01/27 10:54:56;;;;;;;35.05;8.48;;;8.60;99.90;;;;;;5035495;28;20107;-73
2022/01/27 10:57:26;;;;;;;38.83;7.85;;;8.60;99.90;;;;;;5034654;28;20057;-74
2022/01/27 11:00:07;;;;;;;38.55;8.57;;;8.60;99.90;;;;;;5035055;28;20464;-74
2022/01/27 11:02:32;;;;;;;29.63;7.63;;;8.60;99.90;;;;;;5034642;28;20049;-74
2022/01/27 11:04:58;;;;;;;36.25;8.35;;;8.60;99.90;;;;;;5034601;28;20191;-76
2022/01/27 11:07:25;;;;;;;39.85;8.00;;;8.60;99.90;;;;;;5034428;28;20463;-76
2022/01/27 11:09:53;;;;;;;37.40;7.25;;;8.60;99.90;;;;;;5035002;28;20069;-75
2022/01/27 11:12:19;;;;;;;31.48;7.38;;;8.60;99.90;;;;;;5034672;28;20503;-74
2022/01/27 11:14:50;;;;;;;26.92;7.88;;;8.60;99.90;;;;;;5033622;28;20132;-74
2022/01/27 11:17:19;;;;;;;34.17;6.82;;;8.60;99.90;;;;;;5034405;28;20049;-74
2022/01/27 11:27:28;;;;;;;36.67;6.88;;;8.70;99.90;;;;;;5034552;28;19925;-76
2022/01/27 11:30:00;;;;;;;40.70;7.80;;;8.80;99.90;;;;;;5034760;28;20053;-75
2022/01/27 11:32:40;;;;;;;25.98;6.72;;;8.90;99.90;;;;;;5034975;28;20045;-73
2022/01/27 11:35:36;;;;;;;23.98;6.70;;;8.90;99.90;;;;;;5034271;28;20367;-74
2022/01/27 11:38:04;;;;;;;;;;;9.00;99.90;;;;;;5021861;28;20155;-74
2022/01/27 11:40:41;;;;;;;26.08;6.57;;;9.00;99.90;;;;;;5034515;28;19986;-74
2022/01/27 11:43:10;;;;;;;31.50;7.38;;;9.00;99.90;;;;;;5034628;28;20049;-75
2022/01/27 11:45:47;;;;;;;34.17;7.30;;;9.00;99.90;;;;;;5034327;28;20041;-76
2022/01/27 11:48:22;;;;;;;33.72;7.45;;;8.90;99.90;;;;;;5034193;28;20046;-73
2022/01/27 11:50:52;;;;;;;32.05;7.68;;;8.90;99.90;;;;;;5034457;28;20129;-75
2022/01/27 11:53:36;;;;;;;29.63;7.00;;;8.90;99.90;;;;;;5034639;28;20045;-76
2022/01/27 11:56:05;;;;;;;30.35;6.65;;;8.90;99.90;;;;;;5034566;28;20041;-74
2022/01/27 11:58:45;;;;;;;32.60;7.32;;;8.80;99.90;;;;;;5033613;28;20057;-76
2022/01/27 12:01:14;;;;;;;31.77;7.70;;;8.80;99.90;;;;;;5034310;28;20045;-74
2022/01/27 12:03:41;;;;;;;34.65;8.02;;;8.80;99.90;;;;;;5034499;28;20054;-75
2022/01/27 12:06:36;;;;;;;32.00;6.20;;;8.90;99.90;;;;;;5033809;28;20095;-76
2022/01/27 12:09:20;;;;;;;39.38;8.43;;;8.90;99.90;;;;;;5032656;28;20407;-76
2022/01/27 12:11:48;;;;;;;39.08;6.38;;;8.90;99.90;;;;;;5034700;28;20132;-72
2022/01/27 12:14:15;;;;;;;30.63;6.93;;;8.90;99.90;;;;;;5034527;28;20064;-75
2022/01/27 12:16:53;;;;;;;32.85;8.05;;;8.90;99.90;;;;;;5037820;28;20049;-74
2022/01/27 12:19:19;;;;;;;35.05;7.43;;;8.80;99.90;;;;;;5037906;28;20119;-73
2022/01/27 12:21:51;;;;;;;37.88;8.93;;;8.90;99.90;;;;;;5037965;28;20120;-74
2022/01/27 12:24:25;;;;;;;38.38;7.35;;;8.90;99.90;;;;;;5038411;28;20143;-76
2022/01/27 12:26:58;;;;;;;29.52;7.18;;;8.90;99.90;;;;;;5037419;28;20459;-73
2022/01/27 12:29:30;;;;;;;34.63;7.15;;;8.90;99.90;;;;;;5037854;28;20099;-74
2022/01/27 12:31:58;;;;;;;39.70;9.45;;;8.90;99.90;;;;;;5037902;28;20045;-73
2022/01/27 12:34:24;;;;;;;37.35;8.02;;;8.90;99.90;;;;;;5037097;28;20057;-76
2022/01/27 12:37:04;;;;;;;44.88;7.72;;;8.90;99.90;;;;;;5037427;28;20053;-74
2022/01/27 12:39:32;;;;;;;26.95;6.43;;;8.90;99.90;;;;;;5037854;28;20057;-74
2022/01/27 12:42:00;;;;;;;29.58;6.38;;;8.90;99.90;;;;;;5037571;28;20041;-74
2022/01/27 12:44:28;;;;;;;33.42;6.20;;;8.80;99.90;;;;;;5037078;28;20522;-73
2022/01/27 12:47:13;;;;;;;28.48;6.93;;;8.80;99.90;;;;;;5037532;28;20053;-75
2022/01/27 12:50:09;;;;;;;26.77;6.45;;;8.80;99.90;;;;;;5037540;28;20049;-75
2022/01/27 12:52:41;;;;;;;36.50;7.20;;;8.90;99.90;;;;;;5037706;28;20052;-73
2022/01/27 12:55:15;;;;;;;36.88;7.28;;;8.90;99.90;;;;;;5036438;28;20122;-74
2022/01/27 12:57:41;;;;;;;39.22;7.05;;;8.90;99.90;;;;;;5017736;28;20050;-74
2022/01/27 13:00:10;;;;;;;31.27;7.28;;;9.00;99.90;;;;;;5017570;28;20052;-75
2022/01/27 13:02:35;;;;;;;42.55;8.20;;;9.20;99.90;;;;;;5017385;28;20049;-73
2022/01/27 13:05:02;;;;;;;30.00;6.50;;;9.10;99.90;;;;;;5017426;28;20061;-75
2022/01/27 13:07:28;;;;;;;28.02;6.40;;;9.20;99.90;;;;;;5035421;28;20083;-74
2022/01/27 13:10:00;;;;;;;31.02;7.25;;;9.20;99.90;;;;;;5036949;28;20136;-74
2022/01/27 13:12:32;;;;;;;33.00;6.20;;;9.10;99.90;;;;;;5037051;28;20136;-74
2022/01/27 13:15:21;;;;;;;33.50;5.88;;;9.10;99.90;;;;;;5036558;28;20054;-75
2022/01/27 13:18:11;;;;;;;34.17;7.00;;;9.00;99.90;;;;;;5016330;28;20060;-74
2022/01/27 13:20:55;;;;;;;37.72;6.97;;;8.90;99.90;;;;;;5016847;28;20050;-75
2022/01/27 13:23:36;;;;;;;32.22;5.80;;;9.00;99.90;;;;;;5016399;28;20544;-74
2022/01/27 13:26:06;;;;;;;31.95;7.25;;;9.00;99.90;;;;;;5022281;28;20455;-74
2022/01/27 13:28:36;;;;;;;36.92;6.25;;;8.90;99.90;;;;;;5036496;28;20049;-75
2022/01/27 13:31:05;;;;;;;31.25;6.53;;;8.80;99.90;;;;;;5036787;28;20041;-73
2022/01/27 13:33:37;;;;;;;37.85;6.65;;;8.80;99.90;;;;;;5036838;28;20103;-77
2022/01/27 13:36:06;;;;;;;29.88;6.38;;;8.70;99.90;;;;;;5036499;28;20046;-76
2022/01/27 13:38:38;;;;;;;32.08;6.05;;;8.70;99.90;;;;;;5036350;28;20060;-74
2022/01/27 13:41:24;;;;;;;36.17;6.63;;;8.70;99.90;;;;;;5036522;28;20117;-75
2022/01/27 13:44:08;;;;;;;36.13;6.82;;;8.60;99.90;;;;;;5036551;28;20056;-74
2022/01/27 13:46:36;;;;;;;30.65;6.38;;;8.60;99.90;;;;;;5036250;28;20103;-74
2022/01/27 13:49:16;;;;;;;31.35;6.72;;;8.60;99.90;;;;;;5036062;28;20051;-74